Harry Borthen I — LCOG — position and weather

sailwx.info

Track history (hours):
 
Tides and Currents Weather Stations Pressure Air Temp Water Temp Dewpoint Dewpoint Depression Visibility Wind Speed Wind Dir Waves Ship Positions

Oceanographic research ship Harry Borthen I (Norway)

Detailed information on ship capabilities available from University of Delaware's Ocean Information Center.

Last reported at 2020-May-21 12:17 UTC. Time now 2020-May-25 21:41 UTC.
Position N 62°51' E 006°59'.

Length 15 m.

Type: Other ship. MMSI: 257202800.

Date/timePositionNaut miles runAvg speedWind from/ knotsBaromVisibWave heightAir tempDewpointWater temp
2020-May-21 12:17N 62°51' E 006°59'2 2.0
2020-May-21 11:30N 62°52' E 006°57'  
2020-May-14 12:57N 62°46' E 006°56'  
2020-May-12 05:24N 63°03' E 007°21'3 5.6
2020-May-12 04:54N 63°05' E 007°26'9 3.6
2020-May-12 02:29N 63°07' E 007°44'0 0.0
2020-May-11 23:29N 63°07' E 007°44'0 0.0
2020-May-11 22:59N 63°07' E 007°44'0 0.0
2020-May-11 22:29N 63°07' E 007°44'0 0.0
2020-May-11 21:59N 63°07' E 007°44'0 0.0
2020-May-11 21:29N 63°07' E 007°44'0 0.0
2020-May-11 20:29N 63°07' E 007°44'0 0.0
2020-May-11 19:59N 63°07' E 007°44'8 5.5
2020-May-11 18:29N 63°13' E 007°58'15 7.7
2020-May-11 16:30N 63°26' E 008°15'4 7.6
2020-May-11 16:00N 63°29' E 008°18'8 7.6
2020-May-11 15:00N 63°35' E 008°30'8 7.9
2020-May-11 14:00N 63°38' E 008°46'  
Track history (hours):
 
Tides and Currents Weather Stations Pressure Air Temp Water Temp Dewpoint Dewpoint Depression Visibility Wind Speed Wind Dir Waves Ship Positions

Oceanographic research ship Harry Borthen I (Norway)

Detailed information on ship capabilities available from University of Delaware's Ocean Information Center.

Last reported at 2020-May-21 12:17 UTC. Time now 2020-May-25 21:41 UTC.
Position N 62°51' E 006°59'.

Length 15 m.

Type: Other ship. MMSI: 257202800.

Date/timePositionNaut miles runAvg speedWind from/ knotsBaromVisibWave heightAir tempDewpointWater temp
2020-May-21 12:17N 62°51' E 006°59'2 2.0
2020-May-21 11:30N 62°52' E 006°57'  
2020-May-14 12:57N 62°46' E 006°56'  
2020-May-12 05:24N 63°03' E 007°21'3 5.6
2020-May-12 04:54N 63°05' E 007°26'9 3.6
2020-May-12 02:29N 63°07' E 007°44'0 0.0
2020-May-11 23:29N 63°07' E 007°44'0 0.0
2020-May-11 22:59N 63°07' E 007°44'0 0.0
2020-May-11 22:29N 63°07' E 007°44'0 0.0
2020-May-11 21:59N 63°07' E 007°44'0 0.0
2020-May-11 21:29N 63°07' E 007°44'0 0.0
2020-May-11 20:29N 63°07' E 007°44'0 0.0
2020-May-11 19:59N 63°07' E 007°44'8 5.5
2020-May-11 18:29N 63°13' E 007°58'15 7.7
2020-May-11 16:30N 63°26' E 008°15'4 7.6
2020-May-11 16:00N 63°29' E 008°18'8 7.6
2020-May-11 15:00N 63°35' E 008°30'8 7.9
2020-May-11 14:00N 63°38' E 008°46'  

Dump ship's entire track history